Time;durP1;ratioP1;P1;durP2;ratioP2;P2;SDS_P1;SDS_P2;PMS_P1;PMS_P2;Temp;Humidity;BMP_temperature;BMP_pressure;BME280_temperature;BME280_humidity;BME280_pressure;Samples;Min_cycle;Max_cycle;Signal;HPM_P1;HPM_P2
2022/10/08 00:01:07;;;;;;;13.17;11.23;;;10.50;99.90;;;;;;5093994;28;20747;-66
2022/10/08 00:03:36;;;;;;;19.80;10.97;;;10.40;99.90;;;;;;5100290;28;20453;-67
2022/10/08 00:06:05;;;;;;;13.90;11.60;;;10.40;99.90;;;;;;5096049;28;20475;-67
2022/10/08 00:08:35;;;;;;;11.87;10.77;;;10.40;99.90;;;;;;5096366;28;21151;-69
2022/10/08 00:11:06;;;;;;;20.93;11.40;;;10.40;99.90;;;;;;5094843;28;20469;-68
2022/10/08 00:13:39;;;;;;;11.37;10.17;;;10.40;99.90;;;;;;5100987;28;20453;-67
2022/10/08 00:16:07;;;;;;;15.53;10.00;;;10.40;99.90;;;;;;5096133;28;20488;-67
2022/10/08 00:18:34;;;;;;;14.70;10.60;;;10.40;99.90;;;;;;5096619;28;20489;-70
2022/10/08 00:21:06;;;;;;;11.10;10.10;;;10.40;99.90;;;;;;5092876;28;20471;-67
2022/10/08 00:23:34;;;;;;;16.93;11.70;;;10.40;99.90;;;;;;5095811;28;20581;-67
2022/10/08 00:26:03;;;;;;;16.93;10.30;;;10.30;99.90;;;;;;5096587;28;20460;-70
2022/10/08 00:28:29;;;;;;;14.60;10.20;;;10.30;99.90;;;;;;5095907;28;20486;-68
2022/10/08 00:30:57;;;;;;;13.30;12.13;;;10.30;99.90;;;;;;5094837;28;20497;-67
2022/10/08 00:33:24;;;;;;;14.57;9.93;;;10.20;99.90;;;;;;5098261;28;21029;-68
2022/10/08 00:35:52;;;;;;;11.03;9.67;;;10.20;99.90;;;;;;5094327;28;20485;-67
2022/10/08 00:38:19;;;;;;;16.30;10.07;;;10.20;99.90;;;;;;5093110;28;20551;-68
2022/10/08 00:40:47;;;;;;;14.50;10.50;;;10.20;99.90;;;;;;5091489;28;20461;-68
2022/10/08 00:43:16;;;;;;;13.00;10.10;;;10.20;99.90;;;;;;5092835;28;20470;-67
2022/10/08 00:45:45;;;;;;;15.83;10.07;;;10.20;99.90;;;;;;5093917;28;20466;-67
2022/10/08 00:48:24;;;;;;;27.00;11.53;;;10.20;99.90;;;;;;5093709;28;20468;-67
2022/10/08 00:50:52;;;;;;;13.90;9.50;;;10.20;99.90;;;;;;5090507;28;20963;-67
2022/10/08 00:53:20;;;;;;;14.10;8.90;;;10.20;99.90;;;;;;5091607;28;20462;-69
2022/10/08 00:55:49;;;;;;;10.80;9.77;;;10.20;99.90;;;;;;5099169;28;21033;-68
2022/10/08 00:58:19;;;;;;;17.50;9.70;;;10.20;99.90;;;;;;5091978;28;21013;-67
2022/10/08 01:00:47;;;;;;;9.67;8.77;;;10.20;99.90;;;;;;5089857;28;20984;-68
2022/10/08 01:03:14;;;;;;;10.47;9.40;;;10.10;99.90;;;;;;5095168;28;20892;-69
2022/10/08 01:05:51;;;;;;;13.53;9.90;;;10.20;99.90;;;;;;5095093;28;20959;-67
2022/10/08 01:08:28;;;;;;;10.87;9.60;;;10.20;99.90;;;;;;5090073;28;20551;-67
2022/10/08 01:11:03;;;;;;;16.87;9.30;;;10.10;99.90;;;;;;5099356;28;20457;-67
2022/10/08 01:13:41;;;;;;;10.20;9.00;;;10.10;99.90;;;;;;5089440;28;20457;-71
2022/10/08 01:16:20;;;;;;;23.23;9.47;;;10.10;99.90;;;;;;5089982;28;20568;-68
2022/10/08 01:18:52;;;;;;;11.03;8.53;;;10.10;99.90;;;;;;5096595;28;20480;-69
2022/10/08 01:21:30;;;;;;;10.00;8.50;;;10.00;99.90;;;;;;5095185;28;20459;-68
2022/10/08 01:24:21;;;;;;;11.27;9.10;;;10.10;99.90;;;;;;5093091;28;20469;-68
2022/10/08 01:27:02;;;;;;;10.53;8.73;;;10.10;99.90;;;;;;5093666;28;20843;-66
2022/10/08 01:29:37;;;;;;;10.13;8.23;;;10.10;99.90;;;;;;5090861;28;20493;-67
2022/10/08 01:32:07;;;;;;;20.23;9.60;;;10.10;99.90;;;;;;5095474;28;20964;-67
2022/10/08 01:34:39;;;;;;;12.13;9.00;;;10.20;99.90;;;;;;5097378;28;20535;-69
2022/10/08 01:37:11;;;;;;;17.90;9.03;;;10.20;99.90;;;;;;5097647;28;20492;-68
2022/10/08 01:39:40;;;;;;;9.43;8.73;;;10.20;99.90;;;;;;5092234;28;20487;-67
2022/10/08 01:42:10;;;;;;;11.60;7.80;;;10.30;99.90;;;;;;5095025;28;20458;-68
2022/10/08 01:44:41;;;;;;;8.60;7.70;;;10.30;99.90;;;;;;5093747;28;20467;-67
2022/10/08 01:47:13;;;;;;;11.73;8.13;;;10.30;99.90;;;;;;5091819;28;20468;-69
2022/10/08 01:49:45;;;;;;;12.67;8.47;;;10.30;99.90;;;;;;5093474;28;20458;-67
2022/10/08 01:52:17;;;;;;;9.63;7.90;;;10.40;99.90;;;;;;5098628;28;20485;-68
2022/10/08 01:54:47;;;;;;;10.30;8.40;;;10.40;99.90;;;;;;5092006;28;20903;-70
2022/10/08 01:57:14;;;;;;;9.43;8.37;;;10.50;99.90;;;;;;5097554;28;20533;-69
2022/10/08 01:59:46;;;;;;;18.20;8.47;;;10.50;99.90;;;;;;5095338;28;20461;-68
2022/10/08 02:02:17;;;;;;;12.30;8.83;;;10.50;99.90;;;;;;5091798;28;20452;-67
2022/10/08 02:04:44;;;;;;;9.13;7.97;;;10.60;99.90;;;;;;5092830;28;20467;-67
2022/10/08 02:07:15;;;;;;;11.10;8.20;;;10.60;99.90;;;;;;5098981;28;20473;-67
2022/10/08 02:09:44;;;;;;;9.37;8.33;;;10.60;99.90;;;;;;5098549;28;20468;-68
2022/10/08 02:12:13;;;;;;;10.50;9.00;;;10.60;99.90;;;;;;5095445;28;20458;-67
2022/10/08 02:14:43;;;;;;;11.73;8.40;;;10.60;99.90;;;;;;5094497;28;20884;-68
2022/10/08 02:17:22;;;;;;;8.90;8.00;;;10.70;99.90;;;;;;5095706;28;20489;-67
2022/10/08 02:19:55;;;;;;;14.37;8.00;;;10.80;99.90;;;;;;5096202;28;20467;-68
2022/10/08 02:22:27;;;;;;;11.70;8.30;;;10.80;99.90;;;;;;5091410;28;20456;-68
2022/10/08 02:25:00;;;;;;;9.23;8.33;;;10.80;99.90;;;;;;5090231;28;20973;-67
2022/10/08 02:27:33;;;;;;;12.00;8.20;;;10.80;99.90;;;;;;5090588;28;20452;-66
2022/10/08 02:30:08;;;;;;;9.80;8.20;;;10.90;99.90;;;;;;5094863;28;20476;-68
2022/10/08 02:32:39;;;;;;;13.73;8.30;;;11.00;99.90;;;;;;5094954;28;20448;-68
2022/10/08 02:35:13;;;;;;;11.00;9.83;;;11.10;99.90;;;;;;5093838;28;20465;-70
2022/10/08 02:37:45;;;;;;;12.40;8.67;;;11.20;99.90;;;;;;5096286;28;20492;-67
2022/10/08 02:40:15;;;;;;;10.73;8.27;;;11.30;99.90;;;;;;5091457;28;20851;-67
2022/10/08 02:42:46;;;;;;;8.83;8.17;;;11.40;99.90;;;;;;5090856;28;20465;-68
2022/10/08 02:45:21;;;;;;;14.30;8.73;;;11.50;99.90;;;;;;5089962;28;20817;-68
2022/10/08 02:47:53;;;;;;;14.20;8.87;;;11.60;99.90;;;;;;5095327;28;20461;-68
2022/10/08 02:50:24;;;;;;;9.30;8.50;;;11.70;99.90;;;;;;5095628;28;20504;-68
2022/10/08 02:52:51;;;;;;;10.07;9.17;;;11.80;99.90;;;;;;5092780;28;20461;-68
2022/10/08 02:55:27;;;;;;;11.93;9.50;;;11.80;99.90;;;;;;5094641;28;20468;-69
2022/10/08 02:57:59;;;;;;;13.03;9.27;;;11.90;99.90;;;;;;5095077;28;20457;-68
2022/10/08 03:00:34;;;;;;;10.77;9.67;;;12.00;99.90;;;;;;5095733;28;20454;-70
2022/10/08 03:03:07;;;;;;;11.77;10.00;;;12.10;99.90;;;;;;5092662;28;20469;-67
2022/10/08 03:05:36;;;;;;;15.63;9.37;;;12.10;99.90;;;;;;5094011;28;20457;-68
2022/10/08 03:08:05;;;;;;;14.50;10.10;;;12.10;99.90;;;;;;5091932;28;20543;-68
2022/10/08 03:10:35;;;;;;;10.40;9.50;;;12.20;99.90;;;;;;5092371;28;20782;-68
2022/10/08 03:13:03;;;;;;;11.17;10.27;;;12.20;99.90;;;;;;5092250;28;20533;-67
2022/10/08 03:15:33;;;;;;;9.60;8.63;;;12.20;99.90;;;;;;5093558;28;20465;-69
2022/10/08 03:18:04;;;;;;;12.00;8.87;;;12.30;99.90;;;;;;5090922;28;20482;-67
2022/10/08 03:20:32;;;;;;;14.80;9.37;;;12.30;99.90;;;;;;5091831;28;20454;-68
2022/10/08 03:23:01;;;;;;;16.20;10.27;;;12.30;99.90;;;;;;5092854;28;20470;-70
2022/10/08 03:25:29;;;;;;;13.87;12.67;;;12.40;99.90;;;;;;5094022;28;20460;-68
2022/10/08 03:27:56;;;;;;;14.27;12.80;;;12.30;99.90;;;;;;5090514;28;21002;-67
2022/10/08 03:30:23;;;;;;;16.47;13.40;;;12.30;99.90;;;;;;5090293;28;20988;-68
2022/10/08 03:32:51;;;;;;;15.80;14.20;;;12.20;99.90;;;;;;5099820;28;20544;-68
2022/10/08 03:35:18;;;;;;;16.00;14.50;;;12.10;99.90;;;;;;5092386;28;20547;-68
2022/10/08 03:37:45;;;;;;;17.17;14.30;;;12.00;99.90;;;;;;5095363;28;20482;-70
2022/10/08 03:40:12;;;;;;;18.93;17.10;;;11.90;99.90;;;;;;5096250;28;20454;-68
2022/10/08 03:42:41;;;;;;;19.43;15.97;;;11.90;99.90;;;;;;5098505;28;20543;-68
2022/10/08 03:45:08;;;;;;;18.40;16.60;;;11.90;99.90;;;;;;5097731;28;20454;-67
2022/10/08 03:47:35;;;;;;;21.20;17.33;;;11.80;99.90;;;;;;5100358;28;20466;-69
2022/10/08 03:50:04;;;;;;;21.37;19.57;;;11.70;99.90;;;;;;5098845;28;20465;-69
2022/10/08 03:52:31;;;;;;;21.60;19.40;;;11.70;99.90;;;;;;5100281;28;20912;-68
2022/10/08 03:54:59;;;;;;;30.97;20.47;;;11.80;99.90;;;;;;5096664;28;20472;-68
2022/10/08 03:57:25;;;;;;;22.63;20.33;;;11.70;99.90;;;;;;5094015;28;20852;-67
2022/10/08 03:59:52;;;;;;;23.30;21.20;;;11.80;99.90;;;;;;5090458;28;20826;-68
2022/10/08 04:02:19;;;;;;;24.17;21.93;;;11.70;99.90;;;;;;5096683;28;20469;-70
2022/10/08 04:04:46;;;;;;;24.10;22.10;;;11.60;99.90;;;;;;5088238;28;20467;-68
2022/10/08 04:07:14;;;;;;;23.23;21.20;;;11.60;99.90;;;;;;5090908;28;20752;-69
2022/10/08 04:09:41;;;;;;;22.70;20.73;;;11.60;99.90;;;;;;5091140;28;20460;-70
2022/10/08 04:12:07;;;;;;;24.80;22.60;;;11.70;99.90;;;;;;5089762;28;20457;-68
2022/10/08 04:14:34;;;;;;;28.10;21.97;;;11.70;99.90;;;;;;5093391;28;20492;-68
2022/10/08 04:17:01;;;;;;;22.70;20.40;;;11.70;99.90;;;;;;5092908;28;20909;-67
2022/10/08 04:19:27;;;;;;;21.77;20.07;;;11.70;99.90;;;;;;5092598;28;20847;-68
2022/10/08 04:21:55;;;;;;;21.33;19.43;;;11.70;99.90;;;;;;5091379;28;20826;-68
2022/10/08 04:24:23;;;;;;;21.83;19.83;;;11.70;99.90;;;;;;5093740;28;20499;-70
2022/10/08 04:26:50;;;;;;;20.80;18.93;;;11.70;99.90;;;;;;5089794;28;20476;-68
2022/10/08 04:29:17;;;;;;;19.00;17.70;;;11.70;99.90;;;;;;5086611;28;20880;-71
2022/10/08 04:31:44;;;;;;;19.83;18.43;;;11.60;99.90;;;;;;5094179;28;20480;-68
2022/10/08 04:34:11;;;;;;;19.83;18.27;;;11.70;99.90;;;;;;5096150;28;20458;-71
2022/10/08 04:36:39;;;;;;;19.07;17.70;;;11.70;99.90;;;;;;5088235;28;20489;-68
2022/10/08 04:39:06;;;;;;;19.27;17.40;;;11.70;99.90;;;;;;5087271;28;20468;-68
2022/10/08 04:41:34;;;;;;;19.83;18.30;;;11.80;99.90;;;;;;5096376;28;20464;-69
2022/10/08 04:44:01;;;;;;;19.40;17.67;;;11.80;99.90;;;;;;5092722;28;20465;-71
2022/10/08 04:46:28;;;;;;;18.73;17.33;;;11.80;99.90;;;;;;5095598;28;20466;-69
2022/10/08 04:48:56;;;;;;;18.23;16.53;;;11.80;99.90;;;;;;5091938;28;20461;-69
2022/10/08 04:51:26;;;;;;;18.93;17.33;;;11.80;99.90;;;;;;5086836;28;20475;-69
2022/10/08 04:53:53;;;;;;;18.30;16.70;;;11.80;99.90;;;;;;5091426;28;20458;-68
2022/10/08 04:56:22;;;;;;;20.27;18.67;;;11.90;99.90;;;;;;5094334;28;20466;-68
2022/10/08 04:58:51;;;;;;;21.10;19.33;;;11.70;99.90;;;;;;5092812;28;20466;-70
2022/10/08 05:01:19;;;;;;;21.97;20.10;;;11.80;99.90;;;;;;5087214;28;20461;-70
2022/10/08 05:03:48;;;;;;;20.60;18.77;;;11.80;99.90;;;;;;5089798;28;20466;-68
2022/10/08 05:06:16;;;;;;;23.23;20.47;;;11.80;99.90;;;;;;5091063;28;20466;-70
2022/10/08 05:08:43;;;;;;;19.60;17.70;;;11.80;99.90;;;;;;5092606;28;20532;-68
2022/10/08 05:11:10;;;;;;;22.77;18.80;;;11.80;99.90;;;;;;5095613;28;20943;-68
2022/10/08 05:13:37;;;;;;;22.43;17.77;;;11.90;99.90;;;;;;5087655;28;20464;-68
2022/10/08 05:16:07;;;;;;;18.87;16.93;;;11.90;99.90;;;;;;5090314;28;20521;-68
2022/10/08 05:18:35;;;;;;;18.90;17.07;;;11.80;99.90;;;;;;5095070;28;20547;-71
2022/10/08 05:21:05;;;;;;;19.43;17.47;;;11.70;99.90;;;;;;5093901;28;20813;-71
2022/10/08 05:23:33;;;;;;;23.03;17.70;;;11.80;99.90;;;;;;5093797;28;20454;-69
2022/10/08 05:26:01;;;;;;;20.13;18.20;;;11.70;99.90;;;;;;5086251;28;20476;-68
2022/10/08 05:28:29;;;;;;;20.40;18.37;;;11.70;99.90;;;;;;5089143;28;20485;-68
2022/10/08 05:31:00;;;;;;;23.37;19.83;;;11.70;99.90;;;;;;5093193;28;20503;-68
2022/10/08 05:33:29;;;;;;;19.47;17.70;;;11.70;99.90;;;;;;5096040;28;20607;-70
2022/10/08 05:35:56;;;;;;;24.93;19.20;;;11.70;99.90;;;;;;5090740;28;20861;-70
2022/10/08 05:38:23;;;;;;;21.53;18.20;;;11.70;99.90;;;;;;5090931;28;20493;-68
2022/10/08 05:40:49;;;;;;;21.93;19.83;;;11.70;99.90;;;;;;5086553;28;20458;-68
2022/10/08 05:43:16;;;;;;;20.57;18.10;;;11.70;99.90;;;;;;5085489;28;21047;-70
2022/10/08 05:45:50;;;;;;;20.40;18.73;;;11.70;99.90;;;;;;5089913;28;20466;-70
2022/10/08 05:48:16;;;;;;;19.33;17.73;;;11.60;99.90;;;;;;5092303;28;20920;-69
2022/10/08 05:50:45;;;;;;;19.13;17.50;;;11.60;99.90;;;;;;5092598;28;20484;-68
2022/10/08 05:53:11;;;;;;;18.63;17.20;;;11.50;99.90;;;;;;5089378;28;20466;-70
2022/10/08 05:55:39;;;;;;;21.77;19.77;;;11.70;99.90;;;;;;5098761;28;20462;-68
2022/10/08 05:58:05;;;;;;;22.83;20.83;;;11.70;99.90;;;;;;5094184;28;20566;-68
2022/10/08 06:00:32;;;;;;;26.73;23.97;;;11.70;99.90;;;;;;5088535;28;20469;-68
2022/10/08 06:03:00;;;;;;;25.33;22.93;;;11.80;99.90;;;;;;5088097;28;20830;-68
2022/10/08 06:05:26;;;;;;;26.97;23.40;;;11.90;99.90;;;;;;5089859;28;20462;-68
2022/10/08 06:07:56;;;;;;;27.90;24.90;;;11.90;99.90;;;;;;5092168;28;20468;-70
2022/10/08 06:10:23;;;;;;;31.83;26.47;;;11.90;99.90;;;;;;5093133;28;20453;-69
2022/10/08 06:12:51;;;;;;;34.63;29.80;;;12.00;99.90;;;;;;5091283;28;20466;-68
2022/10/08 06:15:17;;;;;;;31.80;27.80;;;11.90;99.90;;;;;;5092324;28;20464;-68
2022/10/08 06:17:44;;;;;;;30.57;26.13;;;12.00;99.90;;;;;;5089510;28;20480;-69
2022/10/08 06:20:11;;;;;;;35.30;25.07;;;12.00;99.90;;;;;;5093391;28;20469;-68
2022/10/08 06:22:38;;;;;;;33.83;25.70;;;12.00;99.90;;;;;;5094033;28;20461;-68
2022/10/08 06:25:08;;;;;;;32.63;26.07;;;12.00;99.90;;;;;;5092621;28;20571;-70
2022/10/08 06:27:35;;;;;;;33.03;27.40;;;12.10;99.90;;;;;;5088735;28;20515;-68
2022/10/08 06:30:01;;;;;;;29.10;26.00;;;12.10;99.90;;;;;;5087503;28;20471;-68
2022/10/08 06:32:29;;;;;;;27.83;24.80;;;12.20;99.90;;;;;;5091976;28;20472;-68
2022/10/08 06:34:56;;;;;;;30.93;23.23;;;12.20;99.90;;;;;;5090366;28;20469;-68
2022/10/08 06:37:22;;;;;;;28.70;23.83;;;12.30;99.90;;;;;;5091453;28;20878;-70
2022/10/08 06:39:49;;;;;;;25.83;22.40;;;12.30;99.90;;;;;;5096986;28;20507;-67
2022/10/08 06:42:17;;;;;;;35.20;23.17;;;12.40;99.90;;;;;;5092214;28;20453;-68
2022/10/08 06:44:45;;;;;;;36.10;23.07;;;12.40;99.90;;;;;;5092586;28;20855;-67
2022/10/08 06:47:11;;;;;;;26.40;22.67;;;12.40;99.90;;;;;;5087549;28;20780;-67
2022/10/08 06:49:39;;;;;;;27.10;21.70;;;12.50;99.90;;;;;;5090622;28;20476;-67
2022/10/08 06:52:06;;;;;;;24.83;21.80;;;12.50;99.90;;;;;;5092417;28;20461;-67
2022/10/08 06:54:33;;;;;;;27.43;21.40;;;12.40;99.90;;;;;;5092571;28;20856;-66
2022/10/08 06:57:00;;;;;;;26.00;20.87;;;12.50;99.90;;;;;;5089811;28;20554;-67
2022/10/08 06:59:28;;;;;;;25.27;21.40;;;12.40;99.90;;;;;;5090725;28;20530;-68
2022/10/08 07:01:55;;;;;;;25.73;22.27;;;12.40;99.90;;;;;;5090581;28;20466;-67
2022/10/08 07:04:22;;;;;;;28.70;21.57;;;12.40;99.90;;;;;;5087350;28;20996;-69
2022/10/08 07:06:48;;;;;;;29.73;21.60;;;12.60;99.90;;;;;;5091778;28;20458;-67
2022/10/08 07:09:16;;;;;;;29.57;21.90;;;12.60;99.90;;;;;;5091277;28;20502;-67
2022/10/08 07:11:42;;;;;;;27.53;20.60;;;12.60;99.90;;;;;;5085799;28;20469;-67
2022/10/08 07:14:10;;;;;;;23.57;21.10;;;12.60;99.90;;;;;;5087171;28;20458;-68
2022/10/08 07:16:38;;;;;;;25.00;19.30;;;12.70;99.90;;;;;;5090156;28;20461;-68
2022/10/08 07:19:04;;;;;;;25.10;19.23;;;12.80;99.90;;;;;;5091713;28;20501;-67
2022/10/08 07:21:31;;;;;;;29.00;19.07;;;12.70;99.90;;;;;;5092273;28;20465;-68
2022/10/08 07:24:00;;;;;;;37.53;18.23;;;12.80;99.90;;;;;;5090438;28;20548;-68
2022/10/08 07:26:29;;;;;;;32.30;19.03;;;12.90;99.90;;;;;;5091498;28;20880;-68
2022/10/08 07:28:58;;;;;;;28.50;18.97;;;12.80;99.90;;;;;;5082764;28;20668;-68
2022/10/08 07:31:28;;;;;;;25.53;19.20;;;12.80;99.90;;;;;;5089842;28;20465;-69
2022/10/08 07:33:56;;;;;;;28.03;17.77;;;12.80;99.90;;;;;;5090892;28;20461;-68
2022/10/08 07:36:25;;;;;;;27.03;18.13;;;12.90;99.90;;;;;;5091775;28;20461;-67
2022/10/08 07:38:57;;;;;;;30.70;16.93;;;12.90;99.90;;;;;;5091107;28;20492;-69
2022/10/08 07:41:24;;;;;;;27.60;17.30;;;13.10;99.90;;;;;;5093338;28;20462;-67
2022/10/08 07:43:52;;;;;;;25.87;16.60;;;13.20;99.90;;;;;;5089081;28;20466;-67
2022/10/08 07:46:20;;;;;;;30.37;18.87;;;13.30;99.90;;;;;;5088945;28;20534;-68
2022/10/08 07:48:47;;;;;;;26.10;16.30;;;13.40;99.90;;;;;;5095255;28;20787;-67
2022/10/08 07:51:18;;;;;;;22.17;16.00;;;13.40;99.90;;;;;;5088941;28;20465;-70
2022/10/08 07:53:45;;;;;;;21.00;16.10;;;13.40;99.90;;;;;;5094292;28;20466;-67
2022/10/08 07:56:14;;;;;;;27.03;16.63;;;13.20;99.90;;;;;;5096170;28;20488;-68
2022/10/08 07:58:41;;;;;;;22.17;16.60;;;13.30;99.90;;;;;;5094640;28;20501;-72
2022/10/08 08:01:11;;;;;;;26.37;16.07;;;13.30;99.90;;;;;;5088393;28;20469;-70
2022/10/08 08:03:38;;;;;;;23.87;16.40;;;13.30;99.90;;;;;;5092944;28;20461;-70
2022/10/08 08:06:09;;;;;;;18.73;15.60;;;13.30;99.90;;;;;;5092267;28;20462;-68
2022/10/08 08:08:38;;;;;;;25.70;16.37;;;13.30;99.90;;;;;;5092014;28;21000;-68
2022/10/08 08:11:07;;;;;;;25.70;16.57;;;13.30;99.90;;;;;;5091967;28;20461;-67
2022/10/08 08:13:36;;;;;;;27.67;17.50;;;13.40;99.90;;;;;;5093254;28;20596;-67
2022/10/08 08:16:05;;;;;;;32.93;18.87;;;13.30;99.90;;;;;;5093789;28;20464;-68
2022/10/08 08:18:34;;;;;;;36.63;18.60;;;13.40;99.90;;;;;;5097029;28;20992;-67
2022/10/08 08:21:03;;;;;;;28.80;17.40;;;13.40;99.90;;;;;;5096070;28;20487;-68
2022/10/08 08:23:30;;;;;;;29.93;18.00;;;13.50;99.90;;;;;;5089898;28;20463;-70
2022/10/08 08:26:01;;;;;;;23.57;17.33;;;13.50;99.90;;;;;;5089611;28;20466;-69
2022/10/08 08:28:29;;;;;;;19.43;16.90;;;13.70;99.90;;;;;;5095192;28;20493;-69
2022/10/08 08:31:05;;;;;;;27.17;16.70;;;13.60;99.90;;;;;;5093473;28;20467;-68
2022/10/08 08:33:32;;;;;;;24.83;17.07;;;13.70;99.90;;;;;;5089035;28;20870;-71
2022/10/08 08:35:59;;;;;;;22.40;18.00;;;13.70;99.90;;;;;;5091881;28;20857;-68
2022/10/08 08:38:26;;;;;;;24.37;18.10;;;13.90;99.90;;;;;;5093949;28;20504;-68
2022/10/08 08:40:56;;;;;;;24.47;17.57;;;14.10;99.90;;;;;;5094379;28;20468;-67
2022/10/08 08:43:25;;;;;;;23.80;18.77;;;14.20;99.90;;;;;;5096522;28;20827;-67
2022/10/08 08:45:52;;;;;;;24.37;18.97;;;14.10;99.90;;;;;;5096271;28;20551;-68
2022/10/08 08:48:22;;;;;;;24.23;19.33;;;14.00;99.90;;;;;;5087076;28;20469;-68
2022/10/08 08:50:51;;;;;;;24.70;17.20;;;14.00;99.90;;;;;;5092548;28;20481;-67
2022/10/08 08:53:19;;;;;;;20.53;16.93;;;14.10;99.90;;;;;;5095641;28;20461;-70
2022/10/08 08:55:48;;;;;;;21.27;17.00;;;14.00;99.90;;;;;;5094167;28;20461;-68
2022/10/08 08:58:24;;;;;;;26.67;16.40;;;14.00;99.90;;;;;;5092358;28;20488;-71
2022/10/08 09:00:57;;;;;;;19.33;16.07;;;14.10;99.90;;;;;;5087954;28;20764;-68
2022/10/08 09:03:28;;;;;;;19.37;17.37;;;14.20;99.90;;;;;;5091079;28;20446;-69
2022/10/08 09:05:59;;;;;;;19.00;15.90;;;14.20;99.90;;;;;;5088966;28;20669;-72
2022/10/08 09:08:31;;;;;;;19.93;15.40;;;14.40;99.90;;;;;;5091756;28;20892;-70
2022/10/08 09:11:01;;;;;;;18.93;16.80;;;14.70;99.90;;;;;;5088635;28;20458;-70
2022/10/08 09:13:32;;;;;;;16.40;14.90;;;15.10;99.90;;;;;;5077750;28;20462;-68
2022/10/08 09:16:01;;;;;;;16.90;15.40;;;15.30;99.90;;;;;;5087723;28;20555;-68
2022/10/08 09:18:28;;;;;;;22.30;15.60;;;15.30;99.90;;;;;;5089568;28;20496;-69
2022/10/08 09:20:54;;;;;;;21.60;15.97;;;15.20;99.90;;;;;;5089588;28;20456;-68
2022/10/08 09:23:23;;;;;;;17.07;15.47;;;15.00;99.90;;;;;;5091181;28;20813;-70
2022/10/08 09:25:56;;;;;;;17.77;16.17;;;15.10;99.90;;;;;;5088884;28;20565;-68
2022/10/08 09:28:41;;;;;;;18.37;16.87;;;15.10;99.90;;;;;;5084228;28;20488;-69
2022/10/08 09:31:19;;;;;;;18.97;17.37;;;14.90;99.90;;;;;;5088661;28;20841;-67
2022/10/08 09:33:53;;;;;;;19.80;17.70;;;14.80;99.90;;;;;;5089122;28;20454;-70
2022/10/08 09:36:30;;;;;;;16.10;14.83;;;14.80;99.90;;;;;;5085595;28;20458;-69
2022/10/08 09:38:59;;;;;;;22.13;16.60;;;14.80;99.90;;;;;;5089609;28;20473;-68
2022/10/08 09:41:27;;;;;;;18.53;16.57;;;14.70;99.90;;;;;;5097445;28;20542;-69
2022/10/08 09:44:11;;;;;;;17.00;15.50;;;14.60;99.90;;;;;;5082984;28;20830;-67
2022/10/08 09:46:39;;;;;;;17.07;15.63;;;14.40;99.90;;;;;;5087425;28;20821;-67
2022/10/08 09:49:29;;;;;;;17.73;14.70;;;14.30;99.90;;;;;;5091636;28;20454;-67
2022/10/08 09:51:59;;;;;;;16.23;14.70;;;14.70;99.90;;;;;;5085735;28;20485;-67
2022/10/08 09:54:28;;;;;;;15.13;13.70;;;15.30;99.90;;;;;;5087787;28;20512;-68
2022/10/08 09:56:58;;;;;;;15.97;14.30;;;15.50;99.90;;;;;;5086662;28;20458;-67
2022/10/08 09:59:27;;;;;;;15.83;14.53;;;15.90;99.90;;;;;;5096359;28;20493;-70
2022/10/08 10:01:56;;;;;;;15.40;14.13;;;16.50;99.90;;;;;;5087245;28;20819;-68
2022/10/08 10:04:32;;;;;;;16.00;14.60;;;16.60;99.90;;;;;;5087770;28;20470;-68
2022/10/08 10:06:59;;;;;;;15.47;14.10;;;16.90;99.90;;;;;;5086956;28;20879;-69
2022/10/08 10:09:35;;;;;;;15.67;14.13;;;17.20;99.90;;;;;;5089260;28;20454;-70
2022/10/08 10:12:06;;;;;;;15.87;14.20;;;17.90;99.90;;;;;;5088977;28;20469;-69
2022/10/08 10:14:41;;;;;;;15.37;14.20;;;18.50;99.90;;;;;;5087308;28;20467;-69
2022/10/08 10:17:16;;;;;;;15.70;14.50;;;18.90;99.90;;;;;;5086227;28;20457;-69
2022/10/08 10:19:47;;;;;;;16.27;14.77;;;18.40;99.90;;;;;;5085351;28;20774;-67
2022/10/08 10:22:18;;;;;;;16.20;14.70;;;18.00;99.90;;;;;;5087570;28;20463;-67
2022/10/08 10:24:52;;;;;;;16.73;15.07;;;17.40;99.90;;;;;;5087818;28;20465;-69
2022/10/08 10:27:27;;;;;;;15.33;14.00;;;16.80;99.90;;;;;;5089522;28;20465;-67
2022/10/08 10:30:02;;;;;;;15.77;14.53;;;16.40;99.90;;;;;;5087069;28;20457;-67
2022/10/08 10:32:35;;;;;;;16.77;15.30;;;16.10;99.90;;;;;;5089584;28;20868;-70
2022/10/08 10:35:11;;;;;;;15.60;14.20;;;15.80;99.90;;;;;;5092124;28;20526;-68
2022/10/08 10:37:45;;;;;;;14.43;13.23;;;15.30;99.90;;;;;;5090400;28;20911;-68
2022/10/08 10:40:31;;;;;;;14.37;13.27;;;15.10;99.90;;;;;;5093640;28;21028;-68
2022/10/08 10:43:16;;;;;;;13.70;12.90;;;15.40;99.90;;;;;;5089164;28;20465;-68
2022/10/08 10:45:48;;;;;;;14.30;13.30;;;16.00;99.90;;;;;;5086755;28;20458;-70
2022/10/08 10:48:16;;;;;;;14.63;13.47;;;17.30;99.90;;;;;;5090291;28;20468;-69
2022/10/08 10:51:02;;;;;;;14.70;13.60;;;18.00;99.90;;;;;;5092726;28;20503;-68
2022/10/08 10:53:38;;;;;;;14.23;13.37;;;18.90;99.90;;;;;;5096320;28;20465;-67
2022/10/08 10:56:12;;;;;;;14.33;13.37;;;18.80;99.90;;;;;;5093526;28;20812;-71
2022/10/08 10:59:00;;;;;;;15.87;14.60;;;18.10;99.90;;;;;;5090059;28;20481;-67
2022/10/08 11:01:33;;;;;;;23.77;21.60;;;17.50;99.90;;;;;;5088491;28;20454;-67
2022/10/08 11:04:08;;;;;;;22.23;20.10;;;16.10;99.90;;;;;;5095599;28;20464;-69
2022/10/08 11:06:59;;;;;;;21.47;19.97;;;14.90;99.90;;;;;;5087020;28;20468;-67
2022/10/08 11:09:33;;;;;;;18.77;17.37;;;14.20;99.90;;;;;;5095879;28;20952;-68
2022/10/08 11:12:05;;;;;;;16.67;15.27;;;14.20;99.90;;;;;;5090271;28;20453;-67
2022/10/08 11:14:44;;;;;;;14.53;13.70;;;15.00;99.90;;;;;;5090909;28;20535;-70
2022/10/08 11:17:28;;;;;;;16.03;14.10;;;15.70;99.90;;;;;;5090736;28;20453;-67
2022/10/08 11:20:11;;;;;;;14.53;13.63;;;16.30;99.90;;;;;;5097071;28;20545;-67
2022/10/08 11:22:44;;;;;;;14.30;13.20;;;16.70;99.90;;;;;;5085141;28;20473;-68
2022/10/08 11:25:23;;;;;;;14.73;13.60;;;17.00;99.90;;;;;;5086122;28;20470;-68
2022/10/08 11:28:02;;;;;;;13.83;13.00;;;17.30;99.90;;;;;;5091512;28;20821;-68
2022/10/08 11:30:40;;;;;;;14.00;13.07;;;17.30;99.90;;;;;;5092032;28;20673;-67
2022/10/08 11:33:13;;;;;;;13.93;12.93;;;17.80;99.90;;;;;;5089490;28;20466;-71
2022/10/08 11:35:49;;;;;;;13.73;12.93;;;18.20;99.90;;;;;;5092341;28;20460;-71
2022/10/08 11:38:23;;;;;;;18.63;13.50;;;18.40;99.90;;;;;;5093555;28;20492;-69
2022/10/08 11:40:56;;;;;;;14.57;13.50;;;18.40;99.90;;;;;;5094401;28;20457;-70
2022/10/08 11:43:29;;;;;;;14.43;13.47;;;18.50;99.90;;;;;;5096102;28;20963;-70
2022/10/08 11:46:27;;;;;;;15.10;13.60;;;19.00;99.90;;;;;;5092332;28;20460;-68
2022/10/08 11:48:56;;;;;;;13.97;13.20;;;19.10;99.90;;;;;;5052810;28;20460;-68
2022/10/08 11:51:38;;;;;;;14.57;13.50;;;19.60;99.90;;;;;;5097356;28;20661;-67
2022/10/08 11:54:25;;;;;;;14.87;13.87;;;19.40;99.90;;;;;;5093080;28;20518;-66
2022/10/08 11:57:08;;;;;;;15.47;14.20;;;19.80;99.90;;;;;;5098825;28;20469;-70
2022/10/08 11:59:40;;;;;;;15.37;14.27;;;19.80;99.90;;;;;;5098133;28;21003;-69
2022/10/08 12:02:22;;;;;;;15.93;14.43;;;19.60;99.90;;;;;;5093688;28;20540;-67
2022/10/08 12:04:51;;;;;;;16.17;14.70;;;19.70;99.90;;;;;;5096779;28;21313;-67
2022/10/08 12:07:26;;;;;;;15.73;14.50;;;19.90;99.90;;;;;;5092577;28;20461;-68
2022/10/08 12:10:28;;;;;;;15.00;14.10;;;20.00;99.90;;;;;;5097047;28;20971;-70
2022/10/08 12:13:27;;;;;;;14.80;13.90;;;20.10;99.90;;;;;;5095387;28;20545;-69
2022/10/08 12:16:03;;;;;;;15.33;14.33;;;20.20;99.90;;;;;;5090075;28;20891;-67
2022/10/08 12:18:46;;;;;;;15.53;14.43;;;20.00;99.90;;;;;;5096504;28;20481;-67
2022/10/08 12:21:36;;;;;;;16.80;15.53;;;20.50;99.90;;;;;;5091937;28;20461;-67
2022/10/08 12:24:46;;;;;;;14.87;14.07;;;20.60;99.90;;;;;;5093485;28;20486;-68
2022/10/08 12:27:36;;;;;;;15.20;14.20;;;20.90;99.90;;;;;;5100389;28;20515;-68
2022/10/08 12:30:06;;;;;;;17.53;16.30;;;20.50;99.90;;;;;;5096733;28;20784;-69
2022/10/08 12:32:51;;;;;;;15.70;14.70;;;20.00;99.90;;;;;;5092631;28;20803;-67
2022/10/08 12:35:22;;;;;;;14.93;13.80;;;19.10;99.90;;;;;;5095256;28;20450;-68
2022/10/08 12:38:18;;;;;;;15.67;14.50;;;19.10;99.90;;;;;;5094380;28;20470;-68
2022/10/08 12:40:52;;;;;;;14.40;13.57;;;19.40;99.90;;;;;;5096721;28;20486;-68
2022/10/08 12:43:28;;;;;;;15.30;14.27;;;19.50;99.90;;;;;;5097313;28;20449;-71
2022/10/08 12:46:02;;;;;;;15.30;14.27;;;19.60;99.90;;;;;;5092266;28;20525;-71
2022/10/08 12:48:38;;;;;;;14.53;13.63;;;19.70;99.90;;;;;;5091024;28;20464;-68